Tamariki Maru No.1 — JD3400 — position and weather

sailwx.info

Track history (hours):
 
Tides and Currents Weather Stations Pressure Air Temp Water Temp Dewpoint Dewpoint Depression Visibility Wind Speed Wind Dir Waves Ship Positions

Tamariki Maru No.1

Last reported at 2017-Dec-16 22:30 UTC. Time now 2017-Dec-16 22:42 UTC.
Position N 34°36' E 135°23'.

Length 79 m; draft 4.1 m.

Type: Tanker. MMSI: 431003767.

Date/timePositionNaut miles runAvg speedWind from/ knotsBaromVisibWave heightAir tempDewpointWater temp
2017-Dec-16 22:30N 34°36' E 135°23'0 0.0
2017-Dec-16 22:01N 34°36' E 135°23'0 0.0
2017-Dec-16 21:30N 34°36' E 135°23'0 0.0
2017-Dec-16 21:01N 34°36' E 135°23'0 0.0
2017-Dec-16 20:30N 34°36' E 135°23'0 0.0
2017-Dec-16 20:01N 34°36' E 135°23'0 0.0
2017-Dec-16 19:30N 34°36' E 135°23'0 0.0
2017-Dec-16 19:00N 34°36' E 135°23'0 0.0
2017-Dec-16 18:30N 34°36' E 135°23'0 0.0
2017-Dec-16 18:00N 34°36' E 135°23'0 0.0
2017-Dec-16 17:30N 34°36' E 135°23'0 0.0
2017-Dec-16 17:01N 34°36' E 135°23'0 0.0
2017-Dec-16 16:30N 34°36' E 135°23'0 0.0
2017-Dec-16 16:00N 34°36' E 135°23'0 0.0
2017-Dec-16 15:31N 34°36' E 135°23'0 0.0
2017-Dec-16 15:00N 34°36' E 135°23'0 0.0
2017-Dec-16 14:30N 34°36' E 135°23'0 0.0
2017-Dec-16 14:01N 34°36' E 135°23'0 0.0
2017-Dec-16 13:30N 34°36' E 135°23'0 0.0
2017-Dec-16 13:00N 34°36' E 135°23'0 0.0
2017-Dec-16 12:30N 34°36' E 135°23'0 0.0
2017-Dec-16 12:00N 34°36' E 135°23'0 0.0
2017-Dec-16 11:30N 34°36' E 135°23'0 0.0
2017-Dec-16 11:00N 34°36' E 135°23'0 0.0
2017-Dec-16 10:31N 34°36' E 135°23'0 0.0
2017-Dec-16 10:00N 34°36' E 135°23'0 0.0
2017-Dec-16 09:30N 34°36' E 135°23'0 0.0
2017-Dec-16 09:01N 34°36' E 135°23'0 0.1
2017-Dec-16 08:30N 34°36' E 135°23'5 9.1
2017-Dec-16 08:00N 34°35' E 135°18'713.6
2017-Dec-16 07:30N 34°35' E 135°09'713.9
2017-Dec-16 07:00N 34°37' E 135°01'714.3
2017-Dec-16 06:31N 34°34' E 134°53'714.1
2017-Dec-16 06:00N 34°32' E 134°45'713.9
2017-Dec-16 05:30N 34°29' E 134°37'98 1.9
2017-Dec-14 02:53N 34°06' E 132°42'411.6
2017-Dec-14 02:30N 34°04' E 132°37'1010.2
2017-Dec-14 01:34N 34°06' E 132°26'112.4
2017-Dec-14 01:30N 34°07' E 132°25'4 8.3
2017-Dec-14 01:00N 34°11' E 132°26'0 0.1
2017-Dec-13 22:35N 34°11' E 132°26'0 0.0
2017-Dec-13 22:28N 34°11' E 132°26'2 4.1
2017-Dec-13 22:00N 34°09' E 132°25'2 2.6
2017-Dec-13 21:23N 34°08' E 132°24'0 0.0
2017-Dec-13 21:00N 34°08' E 132°24'0 0.0
2017-Dec-13 20:29N 34°08' E 132°24'0 0.0
2017-Dec-13 19:59N 34°08' E 132°24'0 0.0
2017-Dec-13 19:28N 34°08' E 132°24'0 0.0
2017-Dec-13 18:29N 34°08' E 132°24'0 0.0
2017-Dec-13 16:21N 34°08' E 132°24'0 0.0
2017-Dec-13 15:59N 34°08' E 132°24'0 0.0
2017-Dec-13 15:27N 34°08' E 132°24'0 0.0
2017-Dec-13 14:56N 34°08' E 132°24'0 0.0
2017-Dec-13 14:14N 34°08' E 132°24'0 0.0
2017-Dec-13 13:59N 34°08' E 132°24'0 0.0
2017-Dec-13 13:29N 34°08' E 132°24'0 0.0
2017-Dec-13 12:42N 34°08' E 132°24'0 0.0
2017-Dec-13 12:26N 34°08' E 132°24'0 0.0
2017-Dec-13 12:00N 34°08' E 132°24'0 0.1
2017-Dec-13 11:29N 34°08' E 132°24'0 0.0
2017-Dec-13 10:42N 34°08' E 132°24'0 0.1
2017-Dec-13 10:05N 34°08' E 132°24'0 0.0
2017-Dec-13 09:55N 34°08' E 132°24'0 0.1
2017-Dec-13 09:28N 34°08' E 132°24'710.1
2017-Dec-13 08:44N 34°03' E 132°30'311.6
2017-Dec-13 08:27N 34°03' E 132°34'612.7
2017-Dec-13 07:59N 34°06' E 132°41'2 0.1
2017-Dec-12 07:32N 34°07' E 132°43'213.3
2017-Dec-12 07:24N 34°06' E 132°41'513.0
2017-Dec-12 07:00N 34°04' E 132°36'811.6
2017-Dec-12 06:21N 34°05' E 132°27'512.2
2017-Dec-12 05:57N 34°08' E 132°22'612.4
2017-Dec-12 05:30N 34°11' E 132°17'2 3.5
2017-Dec-12 04:59N 34°12' E 132°15'0 0.0
2017-Dec-12 04:30N 34°12' E 132°15'0 0.0
2017-Dec-12 04:00N 34°12' E 132°15'0 0.0
2017-Dec-12 03:30N 34°12' E 132°15'0 0.0
2017-Dec-12 03:00N 34°12' E 132°15'0 0.0
2017-Dec-12 02:30N 34°12' E 132°15'0 0.0
2017-Dec-12 02:00N 34°12' E 132°15'0 0.0
2017-Dec-12 01:30N 34°12' E 132°15'0 0.0
2017-Dec-12 01:00N 34°12' E 132°15'0 0.0
2017-Dec-12 00:30N 34°12' E 132°15'0 0.0
2017-Dec-12 00:00N 34°12' E 132°15'0 0.0
2017-Dec-11 23:30N 34°12' E 132°15'0 0.7
2017-Dec-11 23:00N 34°12' E 132°15'0 0.9
2017-Dec-11 22:30N 34°11' E 132°15'0 0.0
2017-Dec-11 22:00N 34°12' E 132°15'0 0.0
2017-Dec-11 21:30N 34°11' E 132°15'0 0.1
2017-Dec-11 21:00N 34°11' E 132°15'0 0.1
2017-Dec-11 20:30N 34°11' E 132°15'0 0.1
2017-Dec-11 20:00N 34°11' E 132°15'0 0.1
2017-Dec-11 19:30N 34°11' E 132°15'0 0.0
2017-Dec-11 19:00N 34°11' E 132°15'0 0.0
2017-Dec-11 18:30N 34°11' E 132°15'0 0.0
2017-Dec-11 18:00N 34°11' E 132°15'0 0.0
2017-Dec-11 17:30N 34°11' E 132°15'0 0.0
2017-Dec-11 17:00N 34°11' E 132°15'0 0.0
2017-Dec-11 16:30N 34°11' E 132°15'0 0.1
2017-Dec-11 16:00N 34°11' E 132°15'0 0.1
2017-Dec-11 15:30N 34°11' E 132°15'0 0.0
2017-Dec-11 15:00N 34°11' E 132°15'0 0.1
2017-Dec-11 14:30N 34°11' E 132°15'0 0.1
2017-Dec-11 13:59N 34°11' E 132°15'0 0.1
2017-Dec-11 13:30N 34°11' E 132°15'0 0.1
2017-Dec-11 13:00N 34°11' E 132°15'0 0.0
2017-Dec-11 12:30N 34°11' E 132°15'0 0.1
2017-Dec-11 12:00N 34°11' E 132°15'0 0.1
2017-Dec-11 11:29N 34°11' E 132°15'0 0.0
2017-Dec-11 11:00N 34°11' E 132°15'0 0.1
2017-Dec-11 10:30N 34°11' E 132°15'5 9.8
2017-Dec-11 10:00N 34°09' E 132°20'1012.7
2017-Dec-11 09:11N 34°03' E 132°31'311.7
2017-Dec-11 08:55N 34°03' E 132°34'513.1
2017-Dec-11 08:30N 34°06' E 132°40'7 0.3
2017-Dec-10 08:31N 34°00' E 132°45'012.1
2017-Dec-10 08:30N 34°00' E 132°45'612.3
2017-Dec-10 07:59N 33°56' E 132°40'1612.2
2017-Dec-10 06:39N 33°50' E 132°21'1512.5
2017-Dec-10 05:28N 33°46' E 132°04'611.0
2017-Dec-10 04:54N 33°49' E 131°58'1012.1
2017-Dec-10 04:06N 33°55' E 131°48'111.7
2017-Dec-10 03:58N 33°56' E 131°47'6 9.1
2017-Dec-10 03:21N 34°02' E 131°48'1 0.5
2017-Dec-10 02:07N 34°02' E 131°49'0 0.0
2017-Dec-10 01:58N 34°02' E 131°49'0 0.0
2017-Dec-10 01:03N 34°02' E 131°49'0 0.0
2017-Dec-10 00:58N 34°02' E 131°49'0 0.0
2017-Dec-10 00:30N 34°02' E 131°49'0 0.0
2017-Dec-09 23:58N 34°02' E 131°49'0 0.0
2017-Dec-09 23:30N 34°02' E 131°49'0 0.2
2017-Dec-09 23:00N 34°02' E 131°49'2 4.2
2017-Dec-09 22:24N 34°01' E 131°46'3 7.3
2017-Dec-09 22:00N 33°58' E 131°48'4 7.2
2017-Dec-09 21:30N 34°00' E 131°51'0 0.0
2017-Dec-09 21:00N 34°00' E 131°51'0 0.0
2017-Dec-09 20:30N 34°00' E 131°51'0 0.0
2017-Dec-09 20:00N 34°00' E 131°51'0 0.0
2017-Dec-09 19:30N 34°00' E 131°51'0 0.0
2017-Dec-09 19:00N 34°00' E 131°51'0 0.0
2017-Dec-09 18:30N 34°00' E 131°51'0 0.0
2017-Dec-09 18:00N 34°00' E 131°51'0 0.0
2017-Dec-09 17:30N 34°00' E 131°51'0 0.0
2017-Dec-09 17:00N 34°00' E 131°51'0 0.0
2017-Dec-09 16:30N 34°00' E 131°51'0 0.0
2017-Dec-09 16:00N 34°00' E 131°51'0 0.0
2017-Dec-09 15:30N 34°00' E 131°51'0 0.0
2017-Dec-09 15:00N 34°00' E 131°51'0 0.0
2017-Dec-09 14:30N 34°00' E 131°51'0 0.0
2017-Dec-09 14:00N 34°00' E 131°51'0 0.0
2017-Dec-09 13:30N 34°00' E 131°51'0 0.0
2017-Dec-09 13:00N 34°00' E 131°51'0 0.0
2017-Dec-09 12:30N 34°00' E 131°51'0 0.0
2017-Dec-09 12:00N 34°00' E 131°51'0 0.0
2017-Dec-09 11:30N 34°00' E 131°51'0 0.0
2017-Dec-09 11:00N 34°00' E 131°51'0 0.0
2017-Dec-09 10:30N 34°00' E 131°51'0 0.0
2017-Dec-09 10:00N 34°00' E 131°51'0 0.0
2017-Dec-09 09:29N 34°00' E 131°51'0 0.0
2017-Dec-09 09:00N 34°00' E 131°51'0 0.0
2017-Dec-09 08:30N 34°00' E 131°51'0 0.0
2017-Dec-09 07:59N 34°00' E 131°51'0 0.0
2017-Dec-09 07:30N 34°00' E 131°51'0 0.0
2017-Dec-09 07:00N 34°00' E 131°51'0 0.0
2017-Dec-09 06:30N 34°00' E 131°51'0 0.0
2017-Dec-09 05:59N 34°00' E 131°51'0 0.0
2017-Dec-09 05:30N 34°00' E 131°51'0 0.0
2017-Dec-09 05:00N 34°00' E 131°51'0 0.0
2017-Dec-09 04:28N 34°00' E 131°51'0 0.0
2017-Dec-09 04:00N 34°00' E 131°51'0 0.0
2017-Dec-09 03:30N 34°00' E 131°51'0 0.0
2017-Dec-09 03:00N 34°00' E 131°51'0 0.0
2017-Dec-09 02:30N 34°00' E 131°51'0 0.0
2017-Dec-09 02:00N 34°00' E 131°51'0 0.0
2017-Dec-09 01:29N 34°00' E 131°51'0 0.0
2017-Dec-09 01:00N 34°00' E 131°51'0 0.0
2017-Dec-09 00:30N 34°00' E 131°51'0 0.0
2017-Dec-09 00:00N 34°00' E 131°51'0 0.0
2017-Dec-08 23:29N 34°00' E 131°51'1 1.2
2017-Dec-08 22:58N 34°00' E 131°51'0 0.1
2017-Dec-08 21:58N 34°00' E 131°51'0 0.0
2017-Dec-08 21:27N 34°00' E 131°51'0 0.0
2017-Dec-08 20:49N 34°00' E 131°51'0 0.2
2017-Dec-08 20:28N 34°00' E 131°51'0 0.0
2017-Dec-08 20:00N 34°00' E 131°51'0 0.0
2017-Dec-08 19:29N 34°00' E 131°51'0 0.0
2017-Dec-08 18:49N 34°00' E 131°51'0 0.0
2017-Dec-08 18:30N 34°00' E 131°51'0 0.0
2017-Dec-08 17:59N 34°00' E 131°51'0 0.0
2017-Dec-08 17:30N 34°00' E 131°51'0 0.0
2017-Dec-08 17:00N 34°00' E 131°51'0 0.1
2017-Dec-08 16:30N 34°00' E 131°51'0 0.1
2017-Dec-08 15:54N 34°00' E 131°51'0 0.0
2017-Dec-08 15:30N 34°00' E 131°51'0 0.0
2017-Dec-08 14:57N 34°00' E 131°51'0 0.0
2017-Dec-08 14:25N 34°00' E 131°51'0 0.0
2017-Dec-08 14:00N 34°00' E 131°51'0 0.1
2017-Dec-08 13:29N 34°00' E 131°51'0 0.1
2017-Dec-08 13:00N 34°00' E 131°51'0 0.2
2017-Dec-08 12:30N 33°60' E 131°51'5 9.9
2017-Dec-08 11:59N 33°55' E 131°49'812.0
2017-Dec-08 11:18N 33°50' E 131°57'412.5
2017-Dec-08 10:59N 33°47' E 132°01'2612.6
2017-Dec-08 08:53N 33°53' E 132°32'1013.9
2017-Dec-08 08:11N 33°57' E 132°42'10 0.6
2017-Dec-07 14:51N 34°07' E 132°45'513.1
2017-Dec-07 14:30N 34°05' E 132°40'712.9
2017-Dec-07 13:56N 34°02' E 132°32'511.9
2017-Dec-07 13:30N 34°05' E 132°27'612.1
2017-Dec-07 13:00N 34°09' E 132°21'612.0
2017-Dec-07 12:30N 34°12' E 132°15'0 0.5
2017-Dec-07 12:00N 34°12' E 132°15'0 0.0
2017-Dec-07 11:30N 34°12' E 132°15'0 0.0
2017-Dec-07 11:00N 34°12' E 132°15'0 0.0
2017-Dec-07 10:30N 34°12' E 132°15'0 0.0
2017-Dec-07 10:00N 34°12' E 132°15'0 0.0
2017-Dec-07 09:30N 34°12' E 132°15'0 0.0
2017-Dec-07 09:00N 34°12' E 132°15'0 0.0
2017-Dec-07 08:30N 34°12' E 132°15'0 0.0
2017-Dec-07 08:00N 34°12' E 132°15'0 0.1
2017-Dec-07 07:31N 34°12' E 132°15'1 1.4
2017-Dec-07 07:00N 34°12' E 132°15'2 3.1
2017-Dec-07 06:26N 34°11' E 132°17'0 0.0
2017-Dec-07 06:00N 34°11' E 132°17'0 0.0
2017-Dec-07 05:30N 34°11' E 132°17'0 0.0
2017-Dec-07 04:54N 34°11' E 132°17'0 0.1
2017-Dec-07 04:30N 34°11' E 132°17'0 0.0
2017-Dec-07 04:00N 34°11' E 132°17'0 0.0
2017-Dec-07 03:27N 34°11' E 132°17'0 0.0
2017-Dec-07 02:54N 34°11' E 132°17'0 0.0
2017-Dec-07 02:30N 34°11' E 132°17'0 0.1
2017-Dec-07 02:00N 34°11' E 132°17'0 0.1
2017-Dec-07 01:30N 34°11' E 132°17'0 0.1
2017-Dec-07 01:00N 34°11' E 132°17'0 0.1
2017-Dec-07 00:30N 34°11' E 132°17'0 0.0
2017-Dec-07 00:00N 34°11' E 132°17'0 0.1
2017-Dec-06 23:30N 34°11' E 132°17'0 0.0
2017-Dec-06 23:00N 34°11' E 132°17'  
Track history (hours):
 
Tides and Currents Weather Stations Pressure Air Temp Water Temp Dewpoint Dewpoint Depression Visibility Wind Speed Wind Dir Waves Ship Positions

Tamariki Maru No.1

Last reported at 2017-Dec-16 22:30 UTC. Time now 2017-Dec-16 22:42 UTC.
Position N 34°36' E 135°23'.

Length 79 m; draft 4.1 m.

Type: Tanker. MMSI: 431003767.

Date/timePositionNaut miles runAvg speedWind from/ knotsBaromVisibWave heightAir tempDewpointWater temp
2017-Dec-16 22:30N 34°36' E 135°23'0 0.0
2017-Dec-16 22:01N 34°36' E 135°23'0 0.0
2017-Dec-16 21:30N 34°36' E 135°23'0 0.0
2017-Dec-16 21:01N 34°36' E 135°23'0 0.0
2017-Dec-16 20:30N 34°36' E 135°23'0 0.0
2017-Dec-16 20:01N 34°36' E 135°23'0 0.0
2017-Dec-16 19:30N 34°36' E 135°23'0 0.0
2017-Dec-16 19:00N 34°36' E 135°23'0 0.0
2017-Dec-16 18:30N 34°36' E 135°23'0 0.0
2017-Dec-16 18:00N 34°36' E 135°23'0 0.0
2017-Dec-16 17:30N 34°36' E 135°23'0 0.0
2017-Dec-16 17:01N 34°36' E 135°23'0 0.0
2017-Dec-16 16:30N 34°36' E 135°23'0 0.0
2017-Dec-16 16:00N 34°36' E 135°23'0 0.0
2017-Dec-16 15:31N 34°36' E 135°23'0 0.0
2017-Dec-16 15:00N 34°36' E 135°23'0 0.0
2017-Dec-16 14:30N 34°36' E 135°23'0 0.0
2017-Dec-16 14:01N 34°36' E 135°23'0 0.0
2017-Dec-16 13:30N 34°36' E 135°23'0 0.0
2017-Dec-16 13:00N 34°36' E 135°23'0 0.0
2017-Dec-16 12:30N 34°36' E 135°23'0 0.0
2017-Dec-16 12:00N 34°36' E 135°23'0 0.0
2017-Dec-16 11:30N 34°36' E 135°23'0 0.0
2017-Dec-16 11:00N 34°36' E 135°23'0 0.0
2017-Dec-16 10:31N 34°36' E 135°23'0 0.0
2017-Dec-16 10:00N 34°36' E 135°23'0 0.0
2017-Dec-16 09:30N 34°36' E 135°23'0 0.0
2017-Dec-16 09:01N 34°36' E 135°23'0 0.1
2017-Dec-16 08:30N 34°36' E 135°23'5 9.1
2017-Dec-16 08:00N 34°35' E 135°18'713.6
2017-Dec-16 07:30N 34°35' E 135°09'713.9
2017-Dec-16 07:00N 34°37' E 135°01'714.3
2017-Dec-16 06:31N 34°34' E 134°53'714.1
2017-Dec-16 06:00N 34°32' E 134°45'713.9
2017-Dec-16 05:30N 34°29' E 134°37'98 1.9
2017-Dec-14 02:53N 34°06' E 132°42'411.6
2017-Dec-14 02:30N 34°04' E 132°37'1010.2
2017-Dec-14 01:34N 34°06' E 132°26'112.4
2017-Dec-14 01:30N 34°07' E 132°25'4 8.3
2017-Dec-14 01:00N 34°11' E 132°26'0 0.1
2017-Dec-13 22:35N 34°11' E 132°26'0 0.0
2017-Dec-13 22:28N 34°11' E 132°26'2 4.1
2017-Dec-13 22:00N 34°09' E 132°25'2 2.6
2017-Dec-13 21:23N 34°08' E 132°24'0 0.0
2017-Dec-13 21:00N 34°08' E 132°24'0 0.0
2017-Dec-13 20:29N 34°08' E 132°24'0 0.0
2017-Dec-13 19:59N 34°08' E 132°24'0 0.0
2017-Dec-13 19:28N 34°08' E 132°24'0 0.0
2017-Dec-13 18:29N 34°08' E 132°24'0 0.0
2017-Dec-13 16:21N 34°08' E 132°24'0 0.0
2017-Dec-13 15:59N 34°08' E 132°24'0 0.0
2017-Dec-13 15:27N 34°08' E 132°24'0 0.0
2017-Dec-13 14:56N 34°08' E 132°24'0 0.0
2017-Dec-13 14:14N 34°08' E 132°24'0 0.0
2017-Dec-13 13:59N 34°08' E 132°24'0 0.0
2017-Dec-13 13:29N 34°08' E 132°24'0 0.0
2017-Dec-13 12:42N 34°08' E 132°24'0 0.0
2017-Dec-13 12:26N 34°08' E 132°24'0 0.0
2017-Dec-13 12:00N 34°08' E 132°24'0 0.1
2017-Dec-13 11:29N 34°08' E 132°24'0 0.0
2017-Dec-13 10:42N 34°08' E 132°24'0 0.1
2017-Dec-13 10:05N 34°08' E 132°24'0 0.0
2017-Dec-13 09:55N 34°08' E 132°24'0 0.1
2017-Dec-13 09:28N 34°08' E 132°24'710.1
2017-Dec-13 08:44N 34°03' E 132°30'311.6
2017-Dec-13 08:27N 34°03' E 132°34'612.7
2017-Dec-13 07:59N 34°06' E 132°41'2 0.1
2017-Dec-12 07:32N 34°07' E 132°43'213.3
2017-Dec-12 07:24N 34°06' E 132°41'513.0
2017-Dec-12 07:00N 34°04' E 132°36'811.6
2017-Dec-12 06:21N 34°05' E 132°27'512.2
2017-Dec-12 05:57N 34°08' E 132°22'612.4
2017-Dec-12 05:30N 34°11' E 132°17'2 3.5
2017-Dec-12 04:59N 34°12' E 132°15'0 0.0
2017-Dec-12 04:30N 34°12' E 132°15'0 0.0
2017-Dec-12 04:00N 34°12' E 132°15'0 0.0
2017-Dec-12 03:30N 34°12' E 132°15'0 0.0
2017-Dec-12 03:00N 34°12' E 132°15'0 0.0
2017-Dec-12 02:30N 34°12' E 132°15'0 0.0
2017-Dec-12 02:00N 34°12' E 132°15'0 0.0
2017-Dec-12 01:30N 34°12' E 132°15'0 0.0
2017-Dec-12 01:00N 34°12' E 132°15'0 0.0
2017-Dec-12 00:30N 34°12' E 132°15'0 0.0
2017-Dec-12 00:00N 34°12' E 132°15'0 0.0
2017-Dec-11 23:30N 34°12' E 132°15'0 0.7
2017-Dec-11 23:00N 34°12' E 132°15'0 0.9
2017-Dec-11 22:30N 34°11' E 132°15'0 0.0
2017-Dec-11 22:00N 34°12' E 132°15'0 0.0
2017-Dec-11 21:30N 34°11' E 132°15'0 0.1
2017-Dec-11 21:00N 34°11' E 132°15'0 0.1
2017-Dec-11 20:30N 34°11' E 132°15'0 0.1
2017-Dec-11 20:00N 34°11' E 132°15'0 0.1
2017-Dec-11 19:30N 34°11' E 132°15'0 0.0
2017-Dec-11 19:00N 34°11' E 132°15'0 0.0
2017-Dec-11 18:30N 34°11' E 132°15'0 0.0
2017-Dec-11 18:00N 34°11' E 132°15'0 0.0
2017-Dec-11 17:30N 34°11' E 132°15'0 0.0
2017-Dec-11 17:00N 34°11' E 132°15'0 0.0
2017-Dec-11 16:30N 34°11' E 132°15'0 0.1
2017-Dec-11 16:00N 34°11' E 132°15'0 0.1
2017-Dec-11 15:30N 34°11' E 132°15'0 0.0
2017-Dec-11 15:00N 34°11' E 132°15'0 0.1
2017-Dec-11 14:30N 34°11' E 132°15'0 0.1
2017-Dec-11 13:59N 34°11' E 132°15'0 0.1
2017-Dec-11 13:30N 34°11' E 132°15'0 0.1
2017-Dec-11 13:00N 34°11' E 132°15'0 0.0
2017-Dec-11 12:30N 34°11' E 132°15'0 0.1
2017-Dec-11 12:00N 34°11' E 132°15'0 0.1
2017-Dec-11 11:29N 34°11' E 132°15'0 0.0
2017-Dec-11 11:00N 34°11' E 132°15'0 0.1
2017-Dec-11 10:30N 34°11' E 132°15'5 9.8
2017-Dec-11 10:00N 34°09' E 132°20'1012.7
2017-Dec-11 09:11N 34°03' E 132°31'311.7
2017-Dec-11 08:55N 34°03' E 132°34'513.1
2017-Dec-11 08:30N 34°06' E 132°40'7 0.3
2017-Dec-10 08:31N 34°00' E 132°45'012.1
2017-Dec-10 08:30N 34°00' E 132°45'612.3
2017-Dec-10 07:59N 33°56' E 132°40'1612.2
2017-Dec-10 06:39N 33°50' E 132°21'1512.5
2017-Dec-10 05:28N 33°46' E 132°04'611.0
2017-Dec-10 04:54N 33°49' E 131°58'1012.1
2017-Dec-10 04:06N 33°55' E 131°48'111.7
2017-Dec-10 03:58N 33°56' E 131°47'6 9.1
2017-Dec-10 03:21N 34°02' E 131°48'1 0.5
2017-Dec-10 02:07N 34°02' E 131°49'0 0.0
2017-Dec-10 01:58N 34°02' E 131°49'0 0.0
2017-Dec-10 01:03N 34°02' E 131°49'0 0.0
2017-Dec-10 00:58N 34°02' E 131°49'0 0.0
2017-Dec-10 00:30N 34°02' E 131°49'0 0.0
2017-Dec-09 23:58N 34°02' E 131°49'0 0.0
2017-Dec-09 23:30N 34°02' E 131°49'0 0.2
2017-Dec-09 23:00N 34°02' E 131°49'2 4.2
2017-Dec-09 22:24N 34°01' E 131°46'3 7.3
2017-Dec-09 22:00N 33°58' E 131°48'4 7.2
2017-Dec-09 21:30N 34°00' E 131°51'0 0.0
2017-Dec-09 21:00N 34°00' E 131°51'0 0.0
2017-Dec-09 20:30N 34°00' E 131°51'0 0.0
2017-Dec-09 20:00N 34°00' E 131°51'0 0.0
2017-Dec-09 19:30N 34°00' E 131°51'0 0.0
2017-Dec-09 19:00N 34°00' E 131°51'0 0.0
2017-Dec-09 18:30N 34°00' E 131°51'0 0.0
2017-Dec-09 18:00N 34°00' E 131°51'0 0.0
2017-Dec-09 17:30N 34°00' E 131°51'0 0.0
2017-Dec-09 17:00N 34°00' E 131°51'0 0.0
2017-Dec-09 16:30N 34°00' E 131°51'0 0.0
2017-Dec-09 16:00N 34°00' E 131°51'0 0.0
2017-Dec-09 15:30N 34°00' E 131°51'0 0.0
2017-Dec-09 15:00N 34°00' E 131°51'0 0.0
2017-Dec-09 14:30N 34°00' E 131°51'0 0.0
2017-Dec-09 14:00N 34°00' E 131°51'0 0.0
2017-Dec-09 13:30N 34°00' E 131°51'0 0.0
2017-Dec-09 13:00N 34°00' E 131°51'0 0.0
2017-Dec-09 12:30N 34°00' E 131°51'0 0.0
2017-Dec-09 12:00N 34°00' E 131°51'0 0.0
2017-Dec-09 11:30N 34°00' E 131°51'0 0.0
2017-Dec-09 11:00N 34°00' E 131°51'0 0.0
2017-Dec-09 10:30N 34°00' E 131°51'0 0.0
2017-Dec-09 10:00N 34°00' E 131°51'0 0.0
2017-Dec-09 09:29N 34°00' E 131°51'0 0.0
2017-Dec-09 09:00N 34°00' E 131°51'0 0.0
2017-Dec-09 08:30N 34°00' E 131°51'0 0.0
2017-Dec-09 07:59N 34°00' E 131°51'0 0.0
2017-Dec-09 07:30N 34°00' E 131°51'0 0.0
2017-Dec-09 07:00N 34°00' E 131°51'0 0.0
2017-Dec-09 06:30N 34°00' E 131°51'0 0.0
2017-Dec-09 05:59N 34°00' E 131°51'0 0.0
2017-Dec-09 05:30N 34°00' E 131°51'0 0.0
2017-Dec-09 05:00N 34°00' E 131°51'0 0.0
2017-Dec-09 04:28N 34°00' E 131°51'0 0.0
2017-Dec-09 04:00N 34°00' E 131°51'0 0.0
2017-Dec-09 03:30N 34°00' E 131°51'0 0.0
2017-Dec-09 03:00N 34°00' E 131°51'0 0.0
2017-Dec-09 02:30N 34°00' E 131°51'0 0.0
2017-Dec-09 02:00N 34°00' E 131°51'0 0.0
2017-Dec-09 01:29N 34°00' E 131°51'0 0.0
2017-Dec-09 01:00N 34°00' E 131°51'0 0.0
2017-Dec-09 00:30N 34°00' E 131°51'0 0.0
2017-Dec-09 00:00N 34°00' E 131°51'0 0.0
2017-Dec-08 23:29N 34°00' E 131°51'1 1.2
2017-Dec-08 22:58N 34°00' E 131°51'0 0.1
2017-Dec-08 21:58N 34°00' E 131°51'0 0.0
2017-Dec-08 21:27N 34°00' E 131°51'0 0.0
2017-Dec-08 20:49N 34°00' E 131°51'0 0.2
2017-Dec-08 20:28N 34°00' E 131°51'0 0.0
2017-Dec-08 20:00N 34°00' E 131°51'0 0.0
2017-Dec-08 19:29N 34°00' E 131°51'0 0.0
2017-Dec-08 18:49N 34°00' E 131°51'0 0.0
2017-Dec-08 18:30N 34°00' E 131°51'0 0.0
2017-Dec-08 17:59N 34°00' E 131°51'0 0.0
2017-Dec-08 17:30N 34°00' E 131°51'0 0.0
2017-Dec-08 17:00N 34°00' E 131°51'0 0.1
2017-Dec-08 16:30N 34°00' E 131°51'0 0.1
2017-Dec-08 15:54N 34°00' E 131°51'0 0.0
2017-Dec-08 15:30N 34°00' E 131°51'0 0.0
2017-Dec-08 14:57N 34°00' E 131°51'0 0.0
2017-Dec-08 14:25N 34°00' E 131°51'0 0.0
2017-Dec-08 14:00N 34°00' E 131°51'0 0.1
2017-Dec-08 13:29N 34°00' E 131°51'0 0.1
2017-Dec-08 13:00N 34°00' E 131°51'0 0.2
2017-Dec-08 12:30N 33°60' E 131°51'5 9.9
2017-Dec-08 11:59N 33°55' E 131°49'812.0
2017-Dec-08 11:18N 33°50' E 131°57'412.5
2017-Dec-08 10:59N 33°47' E 132°01'2612.6
2017-Dec-08 08:53N 33°53' E 132°32'1013.9
2017-Dec-08 08:11N 33°57' E 132°42'10 0.6
2017-Dec-07 14:51N 34°07' E 132°45'513.1
2017-Dec-07 14:30N 34°05' E 132°40'712.9
2017-Dec-07 13:56N 34°02' E 132°32'511.9
2017-Dec-07 13:30N 34°05' E 132°27'612.1
2017-Dec-07 13:00N 34°09' E 132°21'612.0
2017-Dec-07 12:30N 34°12' E 132°15'0 0.5
2017-Dec-07 12:00N 34°12' E 132°15'0 0.0
2017-Dec-07 11:30N 34°12' E 132°15'0 0.0
2017-Dec-07 11:00N 34°12' E 132°15'0 0.0
2017-Dec-07 10:30N 34°12' E 132°15'0 0.0
2017-Dec-07 10:00N 34°12' E 132°15'0 0.0
2017-Dec-07 09:30N 34°12' E 132°15'0 0.0
2017-Dec-07 09:00N 34°12' E 132°15'0 0.0
2017-Dec-07 08:30N 34°12' E 132°15'0 0.0
2017-Dec-07 08:00N 34°12' E 132°15'0 0.1
2017-Dec-07 07:31N 34°12' E 132°15'1 1.4
2017-Dec-07 07:00N 34°12' E 132°15'2 3.1
2017-Dec-07 06:26N 34°11' E 132°17'0 0.0
2017-Dec-07 06:00N 34°11' E 132°17'0 0.0
2017-Dec-07 05:30N 34°11' E 132°17'0 0.0
2017-Dec-07 04:54N 34°11' E 132°17'0 0.1
2017-Dec-07 04:30N 34°11' E 132°17'0 0.0
2017-Dec-07 04:00N 34°11' E 132°17'0 0.0
2017-Dec-07 03:27N 34°11' E 132°17'0 0.0
2017-Dec-07 02:54N 34°11' E 132°17'0 0.0
2017-Dec-07 02:30N 34°11' E 132°17'0 0.1
2017-Dec-07 02:00N 34°11' E 132°17'0 0.1
2017-Dec-07 01:30N 34°11' E 132°17'0 0.1
2017-Dec-07 01:00N 34°11' E 132°17'0 0.1
2017-Dec-07 00:30N 34°11' E 132°17'0 0.0
2017-Dec-07 00:00N 34°11' E 132°17'0 0.1
2017-Dec-06 23:30N 34°11' E 132°17'0 0.0
2017-Dec-06 23:00N 34°11' E 132°17'  

Dump ship's entire track history